NCAR-RAP Real-Time Weather Data

Output produced by METARs form (23 June 2018  19:31 UTC)
found at http://weather.rap.ucar.edu/surface/
 
RJTF 230831Z VRB02KT 2500 RA BR FEW005 SCT010 BKN030 20/19 Q1004 RMK 1ST005 3ST010 5SC030 A2965
RJTF 230816Z VRB01KT 3500 -RA BR FEW005 SCT010 BKN040 20/19 Q1003 RMK 1ST005 3ST010 6SC040 A2964
RJTF 230800Z 30003KT 250V360 3000 RA BR FEW005 SCT010 BKN020 20/19 Q1004
RJTF 230705Z 28003KT 220V320 3000 RA BR FEW005 SCT010 BKN050 21/19 Q1004 RMK 1ST005 3ST010 7SC050 A2967
RJTF 230700Z 27003KT 220V320 3500 -RA BR FEW005 SCT010 BKN050 21/19 Q1004
RJTF 230640Z 22003KT 180V260 3500 -RA BR FEW009 SCT015 BKN060 21/21 Q1004 RMK 1ST009 3CU015 7SC060 A2966
RJTF 230627Z 21003KT 160V240 2500 -RA BR FEW007 SCT010 BKN060 21/21 Q1004 RMK 1ST007 3ST010 7SC060 A2967
RJTF 230604Z 20003KT 160V240 2500 RA BR FEW005 SCT009 BKN050 21/20 Q1005 RMK 1ST005 3ST009 7SC050 A2968
RJTF 230600Z 19003KT 150V220 2500 -RA BR FEW005 SCT009 BKN050 21/21 Q1005
RJTF 230508Z 16007KT 4500 -RA BR FEW013 SCT020 BKN070 22/20 Q1005 RMK 1CU013 4SC020 7AC070 A2970
RJTF 230500Z 17004KT 130V230 6000 -RA FEW015 SCT020 BKN090 23/20 Q1005
RJTF 230400Z VRB01KT 8000 -RA FEW015 SCT020 BKN090 23/19 Q1006
RJTF 230300Z 05004KT 020V100 8000 -RA FEW015 SCT025 BKN140 23/19 Q1005
RJTF 230200Z VRB01KT 8000 FEW020 SCT030 BKN140 23/18 Q1008
RJTF 230100Z 35004KT 310V010 9999 FEW020 SCT030 BKN150 23/19 Q1008
RJTF 230000Z 36004KT 8000 FEW015 SCT025 BKN160 22/18 Q1008
RJTF 222330Z 35004KT 320V030 7000 FEW010 SCT025 BKN170 22/19 Q1009
RJTF 220800Z 20009KT 150V230 9999 FEW020 SCT/// 26/19 Q1007
RJTF 220700Z 17009KT 9999 FEW025 BKN/// 26/20 Q1007
RJTF 220600Z 16009KT 9999 FEW035 BKN/// 27/19 Q1006
RJTF 220500Z 13009KT 090V170 9999 FEW030 SCT040 BKN/// 28/19 Q1006
RJTF 220400Z VRB06KT 9999 FEW030 SCT050 BKN/// 28/17 Q1006
RJTF 220300Z VRB02KT 9999 FEW030 SCT160 29/14 Q1007
RJTF 220200Z 06003KT 330V150 9999 FEW030 BKN180 27/13 Q1008
RJTF 220100Z 04007KT 010V070 9999 FEW030 BKN/// 27/12 Q1007
RJTF 220000Z 02007KT 9999 FEW030 BKN/// 26/13 Q1007
RJTF 212330Z 02007KT 9999 FEW030 SCT/// 26/14 Q1007
RJTF 210800Z VRB02KT 9999 FEW010 BKN015 BKN060 24/21 Q1001